createdAt,value
2023-02-27T00:02:51.327Z,95.92
2023-02-27T00:07:53.134Z,96.59
2023-02-27T00:12:56.221Z,96.22
2023-02-27T00:18:00.568Z,95.89
2023-02-27T00:23:02.179Z,96.35
2023-02-27T00:28:05.019Z,97.44
2023-02-27T00:33:06.989Z,99.96
2023-02-27T00:38:08.617Z,99.76
2023-02-27T00:43:10.235Z,98.66
2023-02-27T00:48:11.920Z,100.00
2023-02-27T00:53:13.563Z,100.00
2023-02-27T00:58:15.207Z,99.32
2023-02-27T01:03:16.835Z,99.92
2023-02-27T01:08:18.518Z,100.00
2023-02-27T01:13:20.155Z,100.00
2023-02-27T01:18:21.818Z,100.00
2023-02-27T01:23:23.606Z,99.87
2023-02-27T01:28:25.314Z,100.00
2023-02-27T01:33:26.977Z,100.00
2023-02-27T01:38:28.657Z,98.16
2023-02-27T01:43:30.390Z,97.86
2023-02-27T01:48:38.787Z,98.40
2023-02-27T01:53:43.764Z,98.87
2023-02-27T01:58:49.012Z,99.45
2023-02-27T02:04:14.787Z,99.10
2023-02-27T02:09:20.491Z,99.14
2023-02-27T02:14:22.101Z,99.20
2023-02-27T02:19:29.625Z,99.01
2023-02-27T02:24:56.322Z,99.75
2023-02-27T02:30:35.601Z,99.48
2023-02-27T02:35:37.200Z,98.22
2023-02-27T02:40:38.799Z,98.39
2023-02-27T02:45:52.461Z,97.51
2023-02-27T02:51:05.973Z,97.80
2023-02-27T02:56:19.628Z,98.27
2023-02-27T03:01:32.915Z,98.04
2023-02-27T03:06:40.106Z,96.50
2023-02-27T03:11:45.626Z,94.90
2023-02-27T03:16:53.276Z,93.72
2023-02-27T03:22:01.276Z,92.04
2023-02-27T03:27:05.844Z,92.68
2023-02-27T03:32:17.796Z,92.07
2023-02-27T03:37:27.157Z,91.43
2023-02-27T03:42:53.582Z,90.43
2023-02-27T03:48:01.169Z,92.33
2023-02-27T03:53:11.327Z,91.22
2023-02-27T03:58:14.429Z,91.73
2023-02-27T04:03:16.477Z,92.21
2023-02-27T04:08:39.647Z,92.22
2023-02-27T04:14:06.830Z,92.67
2023-02-27T04:19:30.396Z,93.81
2023-02-27T04:24:49.950Z,94.84
2023-02-27T04:30:01.315Z,95.71
2023-02-27T04:35:15.731Z,94.92
2023-02-27T04:40:28.287Z,94.16
2023-02-27T04:45:33.466Z,94.06
2023-02-27T04:50:44.819Z,94.66
2023-02-27T04:55:51.717Z,96.40
2023-02-27T05:01:03.913Z,96.50
2023-02-27T05:06:08.081Z,95.01
2023-02-27T05:11:18.269Z,94.42
2023-02-27T05:16:33.121Z,95.69
2023-02-27T05:21:48.842Z,95.13
2023-02-27T05:27:12.187Z,96.17
2023-02-27T05:32:35.080Z,95.51
2023-02-27T05:37:45.505Z,94.19
2023-02-27T05:43:00.816Z,94.69
2023-02-27T05:48:12.438Z,95.70
2023-02-27T05:53:17.983Z,96.65
2023-02-27T05:58:25.670Z,95.73
2023-02-27T06:03:29.769Z,95.13
2023-02-27T06:08:31.502Z,94.50
2023-02-27T06:13:33.237Z,94.82
2023-02-27T06:18:34.857Z,93.92
2023-02-27T06:23:36.459Z,93.74
2023-02-27T06:28:38.359Z,93.90
2023-02-27T06:33:40.012Z,92.33
2023-02-27T06:38:41.638Z,92.21
2023-02-27T06:43:43.394Z,90.61
2023-02-27T06:48:45.628Z,83.88
2023-02-27T06:53:47.567Z,82.05
2023-02-27T06:58:49.197Z,81.06
2023-02-27T07:03:50.975Z,86.58
2023-02-27T07:09:01.592Z,86.57
2023-02-27T07:14:08.006Z,85.18
2023-02-27T07:19:10.634Z,84.30
2023-02-27T07:24:12.504Z,84.89
2023-02-27T07:29:15.005Z,84.80
2023-02-27T07:34:16.895Z,85.03
2023-02-27T07:39:19.455Z,84.87
2023-02-27T07:44:21.141Z,82.25
2023-02-27T07:49:22.786Z,81.33
2023-02-27T07:54:24.431Z,79.90
2023-02-27T07:59:26.037Z,77.33
2023-02-27T08:04:27.674Z,76.36
2023-02-27T08:09:30.832Z,78.46
2023-02-27T08:14:32.496Z,79.30
2023-02-27T08:19:34.389Z,76.86
2023-02-27T08:24:36.336Z,75.58
2023-02-27T08:29:38.057Z,74.40
2023-02-27T08:34:39.803Z,74.34
2023-02-27T08:39:41.538Z,74.95
2023-02-27T08:44:43.450Z,74.90
2023-02-27T08:49:45.051Z,75.32
2023-02-27T08:54:46.711Z,74.76
2023-02-27T08:59:48.363Z,74.22
2023-02-27T09:04:50.110Z,74.15
2023-02-27T09:09:51.785Z,73.77
2023-02-27T09:14:53.559Z,73.91
2023-02-27T09:19:57.286Z,74.63
2023-02-27T09:25:00.261Z,71.06
2023-02-27T09:30:02.150Z,71.33
2023-02-27T09:35:04.256Z,71.77
2023-02-27T09:40:10.715Z,72.81
2023-02-27T09:45:24.767Z,73.59
2023-02-27T09:50:40.585Z,73.46
2023-02-27T09:55:44.276Z,76.77
2023-02-27T10:00:51.230Z,74.85
2023-02-27T10:06:30.204Z,73.26
2023-02-27T10:11:43.815Z,70.92
2023-02-27T10:16:50.002Z,68.75
2023-02-27T10:21:56.678Z,68.15
2023-02-27T10:27:01.338Z,70.07
2023-02-27T10:32:14.949Z,71.32
2023-02-27T10:37:20.908Z,73.25
2023-02-27T10:42:26.043Z,75.32
2023-02-27T10:47:27.753Z,73.48
2023-02-27T10:52:31.023Z,73.12
2023-02-27T10:57:42.246Z,73.62
2023-02-27T11:02:44.469Z,72.61
2023-02-27T11:07:46.288Z,73.09
2023-02-27T11:13:05.673Z,74.52
2023-02-27T11:18:29.370Z,76.16
2023-02-27T11:23:34.086Z,77.72
2023-02-27T11:28:35.809Z,77.87
2023-02-27T11:33:52.313Z,75.02
2023-02-27T11:38:55.874Z,72.71
2023-02-27T11:43:59.227Z,71.93
2023-02-27T11:49:21.981Z,70.59
2023-02-27T11:54:36.439Z,69.10
2023-02-27T11:59:41.810Z,66.78
2023-02-27T12:04:47.971Z,65.08
2023-02-27T12:09:59.132Z,64.84
2023-02-27T12:15:18.128Z,65.06
2023-02-27T12:20:38.330Z,67.54
2023-02-27T12:25:40.001Z,66.71
2023-02-27T12:31:00.196Z,70.30
2023-02-27T12:36:03.481Z,69.82
2023-02-27T12:41:14.853Z,68.73
2023-02-27T12:46:31.712Z,58.52
2023-02-27T12:51:51.275Z,54.97
2023-02-27T12:57:06.096Z,55.97
2023-02-27T13:02:13.845Z,59.55
2023-02-27T13:07:43.840Z,63.37
2023-02-27T13:12:57.335Z,68.43
2023-02-27T13:18:09.503Z,69.44
2023-02-27T13:23:18.942Z,72.76
2023-02-27T13:28:25.574Z,72.12
2023-02-27T13:33:53.130Z,64.19
2023-02-27T13:38:56.138Z,58.67
2023-02-27T13:44:19.093Z,60.28
2023-02-27T13:49:30.188Z,66.15
2023-02-27T13:54:34.431Z,68.80
2023-02-27T13:59:41.950Z,70.78
2023-02-27T14:04:52.768Z,72.24
2023-02-27T14:10:08.927Z,68.52
2023-02-27T14:15:17.898Z,64.15
2023-02-27T14:20:19.552Z,62.27
2023-02-27T14:25:26.456Z,62.00
2023-02-27T14:30:38.226Z,57.28
2023-02-27T14:35:45.607Z,54.12
2023-02-27T14:41:29.300Z,56.25
2023-02-27T14:46:39.314Z,60.09
2023-02-27T14:51:41.151Z,60.03
2023-02-27T14:56:55.025Z,61.27
2023-02-27T15:01:59.164Z,61.95
2023-02-27T15:07:01.137Z,61.80
2023-02-27T15:12:04.780Z,62.17
2023-02-27T15:17:19.079Z,62.72
2023-02-27T15:22:38.108Z,64.85
2023-02-27T15:27:42.495Z,64.27
2023-02-27T15:32:44.487Z,64.44
2023-02-27T15:37:54.481Z,66.47
2023-02-27T15:42:57.235Z,68.88
2023-02-27T15:47:59.234Z,68.93
2023-02-27T15:53:20.407Z,73.69
2023-02-27T15:58:25.306Z,76.83
2023-02-27T16:03:33.098Z,77.20
2023-02-27T16:08:34.797Z,77.55
2023-02-27T16:13:41.190Z,76.59
2023-02-27T16:18:54.729Z,77.29
2023-02-27T16:24:20.193Z,78.48
2023-02-27T16:29:23.861Z,79.35
2023-02-27T16:34:47.545Z,79.30
2023-02-27T16:39:52.255Z,80.80
2023-02-27T16:44:53.925Z,80.99
2023-02-27T16:49:55.589Z,83.36
2023-02-27T16:54:57.309Z,83.07
2023-02-27T16:59:58.975Z,83.31
2023-02-27T17:05:00.658Z,83.46
2023-02-27T17:10:03.056Z,84.80
2023-02-27T17:15:05.076Z,86.23
2023-02-27T17:20:07.551Z,87.91
2023-02-27T17:25:10.528Z,88.32
2023-02-27T17:30:14.265Z,88.75
2023-02-27T17:35:15.891Z,89.01
2023-02-27T17:40:17.970Z,89.05
2023-02-27T17:45:21.165Z,87.59
2023-02-27T17:50:22.797Z,88.66
2023-02-27T17:55:24.395Z,87.88
2023-02-27T18:00:26.122Z,87.80
2023-02-27T18:05:27.872Z,87.34
2023-02-27T18:10:29.473Z,89.04
2023-02-27T18:15:31.829Z,88.58
2023-02-27T18:20:33.456Z,87.50
2023-02-27T18:25:35.956Z,87.77
2023-02-27T18:30:39.322Z,89.26
2023-02-27T18:35:40.942Z,88.73
2023-02-27T18:40:42.906Z,88.73
2023-02-27T18:45:44.545Z,89.12
2023-02-27T18:50:46.201Z,88.80
2023-02-27T18:55:47.878Z,88.20
2023-02-27T19:00:49.499Z,87.16
2023-02-27T19:05:51.316Z,86.96
2023-02-27T19:10:53.162Z,88.16
2023-02-27T19:15:54.871Z,87.18
2023-02-27T19:20:57.449Z,88.37
2023-02-27T19:26:02.929Z,88.98
2023-02-27T19:31:09.637Z,88.91
2023-02-27T19:36:14.265Z,89.21
2023-02-27T19:41:17.911Z,91.14
2023-02-27T19:46:32.659Z,91.50
2023-02-27T19:51:34.574Z,90.04
2023-02-27T19:56:36.250Z,88.67
2023-02-27T20:01:39.009Z,86.68
2023-02-27T20:06:44.041Z,86.68
2023-02-27T20:11:47.975Z,86.49
2023-02-27T20:16:49.841Z,87.55
2023-02-27T20:21:55.449Z,89.84
2023-02-27T20:26:59.234Z,90.08
2023-02-27T20:32:01.350Z,90.37
2023-02-27T20:37:03.261Z,91.63
2023-02-27T20:42:05.895Z,91.62
2023-02-27T20:47:09.067Z,91.50
2023-02-27T20:52:10.733Z,92.03
2023-02-27T20:57:12.394Z,91.09
2023-02-27T21:02:14.059Z,91.27
2023-02-27T21:07:18.678Z,91.88
2023-02-27T21:12:20.341Z,92.43
2023-02-27T21:17:23.319Z,92.85
2023-02-27T21:22:24.924Z,93.21
2023-02-27T21:27:26.684Z,94.15
2023-02-27T21:32:28.296Z,93.30
2023-02-27T21:37:29.923Z,92.99
2023-02-27T21:42:31.867Z,94.04
2023-02-27T21:47:33.485Z,93.76
2023-02-27T21:52:35.173Z,94.44
2023-02-27T21:57:38.693Z,94.19
2023-02-27T22:02:40.442Z,94.32
2023-02-27T22:07:42.082Z,94.60
2023-02-27T22:12:43.703Z,95.64
2023-02-27T22:17:45.372Z,96.47
2023-02-27T22:22:47.360Z,96.47
2023-02-27T22:27:48.975Z,96.51
2023-02-27T22:32:50.603Z,96.76
2023-02-27T22:37:52.266Z,96.87
2023-02-27T22:42:53.884Z,97.64
2023-02-27T22:47:55.493Z,97.89
2023-02-27T22:52:57.100Z,98.68
2023-02-27T22:57:58.713Z,97.30
2023-02-27T23:03:00.299Z,98.80
2023-02-27T23:08:01.918Z,97.98
2023-02-27T23:13:03.542Z,97.55
2023-02-27T23:18:06.261Z,96.51
2023-02-27T23:23:09.090Z,95.30
2023-02-27T23:28:10.750Z,96.10
2023-02-27T23:33:12.466Z,95.94
2023-02-27T23:38:14.144Z,97.05
2023-02-27T23:43:34.432Z,95.96
2023-02-27T23:48:36.541Z,97.00
2023-02-27T23:53:40.380Z,99.00
2023-02-27T23:58:42.148Z,98.00
